Time;durP1;ratioP1;P1;durP2;ratioP2;P2;SDS_P1;SDS_P2;PMS_P1;PMS_P2;Temp;Humidity;BMP_temperature;BMP_pressure;BME280_temperature;BME280_humidity;BME280_pressure;Samples;Min_cycle;Max_cycle;Signal;HPM_P1;HPM_P2
2021/10/18 00:02:24;;;;;;;5.40;3.10;;;;;;;9.57;79.49;101547.27;115759;1187;60726;-82
2021/10/18 00:04:50;;;;;;;6.10;3.00;;;;;;;9.57;79.38;101549.80;115742;1192;74588;-82
2021/10/18 00:07:17;;;;;;;4.70;3.00;;;;;;;9.55;79.57;101549.05;115645;1192;71879;-82
2021/10/18 00:09:44;;;;;;;6.40;3.10;;;;;;;9.55;79.51;101545.93;115745;1192;73597;-82
2021/10/18 00:12:10;;;;;;;6.20;3.00;;;;;;;9.54;79.75;101547.41;115722;1192;62057;-82
2021/10/18 00:14:37;;;;;;;5.30;2.70;;;;;;;9.53;79.87;101549.29;115786;1192;60500;-82
2021/10/18 00:17:04;;;;;;;7.00;2.80;;;;;;;9.52;80.10;101549.36;115734;1192;74967;-82
2021/10/18 00:19:34;;;;;;;4.80;2.70;;;;;;;9.50;80.12;101549.38;115790;1192;72055;-82
2021/10/18 00:22:00;;;;;;;4.90;2.60;;;;;;;9.49;79.91;101550.74;115763;1192;73495;-82
2021/10/18 00:24:27;;;;;;;3.80;2.20;;;;;;;9.46;79.91;101548.60;114679;1192;60455;-81
2021/10/18 00:26:53;;;;;;;4.30;2.60;;;;;;;9.43;80.01;101545.00;115446;1192;59020;-82
2021/10/18 00:29:20;;;;;;;5.40;2.40;;;;;;;9.40;80.01;101552.84;115557;1192;58953;-82
2021/10/18 00:31:46;;;;;;;6.50;2.70;;;;;;;9.37;79.74;101550.08;115557;1192;72160;-82
2021/10/18 00:34:13;;;;;;;5.90;2.60;;;;;;;9.35;79.66;101555.05;115788;1192;73764;-82
2021/10/18 00:36:40;;;;;;;7.10;2.40;;;;;;;9.33;79.45;101555.98;115539;1192;61965;-82
2021/10/18 00:39:07;;;;;;;9.10;2.40;;;;;;;9.32;79.10;101553.59;115737;1192;60405;-82
2021/10/18 00:41:33;;;;;;;5.40;2.30;;;;;;;9.31;79.03;101549.91;115584;1192;75649;-82
2021/10/18 00:44:00;;;;;;;3.70;2.10;;;;;;;9.31;78.96;101548.52;115665;1192;72050;-83
2021/10/18 00:46:27;;;;;;;4.20;1.90;;;;;;;9.31;79.04;101544.51;115620;1192;72609;-83
2021/10/18 00:48:55;;;;;;;4.90;3.00;;;;;;;9.30;78.90;101547.73;115905;1192;60368;-82
2021/10/18 00:51:25;;;;;;;3.90;2.30;;;;;;;9.29;79.25;101548.38;115847;1191;60193;-82
2021/10/18 00:53:57;;;;;;;5.60;2.20;;;;;;;9.27;79.00;101551.44;115887;1192;74694;-82
2021/10/18 00:56:25;;;;;;;13.00;3.20;;;;;;;9.24;78.93;101556.29;115825;1192;71589;-82
2021/10/18 00:58:55;;;;;;;6.10;2.80;;;;;;;9.22;79.03;101556.16;115748;1192;73152;-82
2021/10/18 01:01:22;;;;;;;5.40;2.20;;;;;;;9.22;79.03;101555.96;115517;1192;64224;-82
2021/10/18 01:03:49;;;;;;;7.80;3.00;;;;;;;9.22;79.07;101552.27;115574;1192;60392;-82
2021/10/18 01:06:15;;;;;;;6.20;2.60;;;;;;;9.22;78.81;101553.41;115753;1192;59813;-82
2021/10/18 01:08:42;;;;;;;4.20;2.30;;;;;;;9.24;78.46;101552.56;115742;1192;71307;-83
2021/10/18 01:11:09;;;;;;;5.50;3.10;;;;;;;9.27;78.29;101554.27;115766;1192;72567;-82
2021/10/18 01:13:35;;;;;;;3.70;2.10;;;;;;;9.29;78.15;101553.19;115744;1192;59966;-82
2021/10/18 01:16:02;;;;;;;7.80;2.00;;;;;;;9.30;77.87;101552.23;115740;1192;61415;-82
2021/10/18 01:18:29;;;;;;;9.20;2.40;;;;;;;9.31;77.75;101551.16;115767;1192;74764;-82
2021/10/18 01:20:56;;;;;;;4.10;2.50;;;;;;;9.33;77.51;101548.02;115714;1192;70888;-82
2021/10/18 01:23:22;;;;;;;4.40;2.40;;;;;;;9.34;77.61;101547.55;115721;1192;58844;-82
2021/10/18 01:25:50;;;;;;;5.40;2.00;;;;;;;9.35;77.38;101552.93;115672;1192;59329;-82
2021/10/18 01:28:17;;;;;;;5.20;1.80;;;;;;;9.36;77.48;101555.86;115726;1192;60466;-82
2021/10/18 01:30:44;;;;;;;3.70;2.30;;;;;;;9.35;77.10;101555.02;115747;1192;74592;-82
2021/10/18 01:33:11;;;;;;;6.40;2.50;;;;;;;9.35;77.34;101554.52;115769;1192;71219;-82
2021/10/18 01:35:38;;;;;;;4.60;2.00;;;;;;;9.35;77.28;101560.54;115744;1192;73316;-82
2021/10/18 01:38:05;;;;;;;7.90;2.80;;;;;;;9.36;77.41;101559.40;115758;1192;61941;-82
2021/10/18 01:40:32;;;;;;;8.10;2.70;;;;;;;9.33;77.31;101553.66;115635;1192;61273;-82
2021/10/18 01:42:58;;;;;;;6.20;2.40;;;;;;;9.33;77.33;101550.46;115902;1191;75582;-82
2021/10/18 01:45:25;;;;;;;4.40;2.20;;;;;;;9.32;77.44;101551.77;115871;1192;72147;-82
2021/10/18 01:47:52;;;;;;;8.10;2.30;;;;;;;9.31;77.38;101550.64;115898;1192;72241;-82
2021/10/18 01:50:21;;;;;;;6.50;2.10;;;;;;;9.30;77.62;101555.41;115861;1192;60369;-82
2021/10/18 01:52:50;;;;;;;5.60;1.90;;;;;;;9.27;77.67;101552.46;115884;1192;61282;-82
2021/10/18 01:55:19;;;;;;;5.20;2.50;;;;;;;9.24;77.65;101554.67;115904;1192;75801;-82
2021/10/18 01:57:47;;;;;;;5.90;2.50;;;;;;;9.20;77.77;101550.13;115706;1192;71001;-82
2021/10/18 02:00:14;;;;;;;5.30;2.30;;;;;;;9.20;78.05;101552.80;115877;1192;72716;-82
2021/10/18 02:02:43;;;;;;;7.70;2.50;;;;;;;9.18;77.89;101553.31;115717;1192;61928;-82
2021/10/18 02:05:10;;;;;;;5.80;2.20;;;;;;;9.16;78.06;101547.66;115872;1192;60348;-82
2021/10/18 02:07:39;;;;;;;6.10;2.90;;;;;;;9.15;77.83;101543.23;115569;1192;74779;-82
2021/10/18 02:10:05;;;;;;;8.60;2.30;;;;;;;9.12;77.91;101543.10;115780;1192;72109;-82
2021/10/18 02:12:32;;;;;;;3.70;2.10;;;;;;;9.09;78.09;101541.25;115624;1192;72168;-82
2021/10/18 02:14:59;;;;;;;7.20;2.60;;;;;;;9.05;78.35;101540.75;115387;1192;62029;-82
2021/10/18 02:17:25;;;;;;;3.50;1.80;;;;;;;9.02;78.31;101546.39;115758;1192;60109;-82
2021/10/18 02:19:52;;;;;;;4.20;2.10;;;;;;;8.97;78.74;101548.16;115782;1191;74688;-82
2021/10/18 02:22:19;;;;;;;3.30;1.80;;;;;;;8.93;78.96;101547.48;115922;1192;71450;-82
2021/10/18 02:24:45;;;;;;;6.60;2.90;;;;;;;8.89;79.39;101551.97;115760;1192;73100;-82
2021/10/18 02:27:12;;;;;;;4.50;2.40;;;;;;;8.86;79.37;101556.13;115717;1192;62081;-82
2021/10/18 02:29:38;;;;;;;5.00;2.10;;;;;;;8.83;79.37;101553.44;115881;1192;59944;-82
2021/10/18 02:32:05;;;;;;;6.00;2.70;;;;;;;8.78;79.72;101549.84;115828;1192;59424;-82
2021/10/18 02:34:32;;;;;;;4.30;2.50;;;;;;;8.77;79.80;101554.10;115797;1192;70997;-82
2021/10/18 02:36:59;;;;;;;5.60;2.50;;;;;;;8.76;79.85;101554.45;115822;1192;73788;-82
2021/10/18 02:39:25;;;;;;;4.10;2.00;;;;;;;8.75;79.77;101552.77;115799;1191;62274;-82
2021/10/18 02:41:52;;;;;;;6.40;2.30;;;;;;;8.74;80.11;101549.99;115848;1192;59528;-82
2021/10/18 02:44:19;;;;;;;3.90;2.50;;;;;;;8.73;80.01;101552.59;115844;1192;74255;-82
2021/10/18 02:46:45;;;;;;;4.70;2.10;;;;;;;8.70;80.16;101554.77;115601;1192;58872;-82
2021/10/18 02:49:12;;;;;;;6.20;2.10;;;;;;;8.70;79.98;101556.41;115763;1192;73868;-82
2021/10/18 02:51:38;;;;;;;5.20;2.60;;;;;;;8.69;80.15;101559.13;115754;1192;58924;-82
2021/10/18 02:54:05;;;;;;;4.60;3.00;;;;;;;8.68;80.12;101555.90;115660;1192;61280;-82
2021/10/18 02:56:32;;;;;;;4.20;2.70;;;;;;;8.66;80.22;101558.52;115720;1192;74803;-82
2021/10/18 02:58:58;;;;;;;4.60;2.40;;;;;;;8.62;80.28;101547.23;115766;1192;70998;-82
2021/10/18 03:01:25;;;;;;;5.60;2.70;;;;;;;8.58;80.25;101547.98;115605;1192;72540;-82
2021/10/18 03:03:52;;;;;;;7.10;2.50;;;;;;;8.53;80.31;101546.81;115720;1192;62126;-82
2021/10/18 03:06:19;;;;;;;5.50;2.70;;;;;;;8.49;80.24;101548.94;115854;1192;61003;-82
2021/10/18 03:08:45;;;;;;;4.00;1.90;;;;;;;8.45;80.56;101546.45;115748;1192;75794;-83
2021/10/18 03:11:13;;;;;;;7.50;3.00;;;;;;;8.42;80.87;101550.27;115830;1192;70888;-82
2021/10/18 03:13:39;;;;;;;4.60;3.20;;;;;;;8.40;80.97;101551.34;115822;1192;73562;-82
2021/10/18 03:16:06;;;;;;;4.70;2.80;;;;;;;8.38;80.77;101551.16;115670;1192;61788;-82
2021/10/18 03:18:33;;;;;;;6.00;2.50;;;;;;;8.36;80.93;101553.27;115636;1192;60315;-82
2021/10/18 03:20:59;;;;;;;4.50;2.50;;;;;;;8.34;80.96;101551.55;115741;1192;74734;-82
2021/10/18 03:23:26;;;;;;;6.40;3.00;;;;;;;8.32;80.79;101551.29;115620;1192;59027;-82
2021/10/18 03:25:56;;;;;;;4.90;2.80;;;;;;;8.31;81.40;101554.92;115665;1192;59035;-82
2021/10/18 03:28:23;;;;;;;6.10;3.10;;;;;;;8.32;81.32;101557.73;115744;1192;61983;-82
2021/10/18 03:30:49;;;;;;;7.60;2.20;;;;;;;8.30;81.15;101551.69;115874;1192;60764;-82
2021/10/18 03:33:16;;;;;;;6.90;3.20;;;;;;;8.33;81.14;101558.50;115942;1184;73261;-82
2021/10/18 03:35:44;;;;;;;7.30;2.90;;;;;;;8.34;81.34;101561.73;115733;1192;70768;-82
2021/10/18 03:38:11;;;;;;;5.10;2.90;;;;;;;8.35;81.39;101559.35;115877;1192;72555;-82
2021/10/18 03:40:37;;;;;;;6.60;3.00;;;;;;;8.36;81.64;101562.83;115824;1192;60455;-82
2021/10/18 03:43:04;;;;;;;7.00;2.90;;;;;;;8.35;81.45;101561.11;115828;1192;60695;-82
2021/10/18 03:45:31;;;;;;;4.60;2.40;;;;;;;8.36;81.41;101558.02;115824;1192;75844;-82
2021/10/18 03:47:57;;;;;;;4.10;2.60;;;;;;;8.36;81.38;101562.44;115822;1192;70984;-82
2021/10/18 03:50:26;;;;;;;5.20;2.60;;;;;;;8.37;81.01;101560.55;115792;1192;73666;-82
2021/10/18 03:52:53;;;;;;;4.70;2.60;;;;;;;8.39;81.42;101563.23;115750;1192;62395;-82
2021/10/18 03:55:19;;;;;;;8.00;2.60;;;;;;;8.40;81.28;101564.39;115830;1192;58654;-82
2021/10/18 03:57:46;;;;;;;6.60;2.20;;;;;;;8.41;81.15;101565.16;115841;1184;59796;-82
2021/10/18 04:00:13;;;;;;;5.10;2.60;;;;;;;8.43;81.15;101568.70;115844;1192;71455;-82
2021/10/18 04:02:39;;;;;;;5.00;2.50;;;;;;;8.45;81.14;101567.29;115844;1192;73139;-83
2021/10/18 04:05:06;;;;;;;6.40;2.60;;;;;;;8.47;80.87;101568.30;115892;1191;62776;-82
2021/10/18 04:07:33;;;;;;;4.40;2.10;;;;;;;8.50;80.77;101561.71;115938;1191;60351;-82
2021/10/18 04:09:59;;;;;;;4.00;2.40;;;;;;;8.52;80.84;101562.41;115804;1192;59028;-82
2021/10/18 04:12:26;;;;;;;3.70;2.40;;;;;;;8.55;80.62;101561.63;115886;1192;72265;-82
2021/10/18 04:14:53;;;;;;;3.80;2.20;;;;;;;8.57;80.15;101561.56;115864;1192;72591;-82
2021/10/18 04:17:19;;;;;;;5.40;2.10;;;;;;;8.60;79.87;101565.46;115888;1192;58602;-82
2021/10/18 04:19:46;;;;;;;4.90;2.60;;;;;;;8.62;79.45;101567.85;115709;1192;60818;-82
2021/10/18 04:22:12;;;;;;;4.60;2.50;;;;;;;8.64;79.18;101570.33;115807;1192;75023;-83
2021/10/18 04:24:39;;;;;;;4.90;2.30;;;;;;;8.66;79.43;101575.23;115761;1192;72706;-82
2021/10/18 04:27:06;;;;;;;4.60;2.40;;;;;;;8.69;79.07;101575.73;115728;1192;72766;-82
2021/10/18 04:29:32;;;;;;;6.90;2.80;;;;;;;8.71;79.23;101575.89;115872;1192;59446;-82
2021/10/18 04:31:59;;;;;;;5.90;2.60;;;;;;;8.72;79.19;101576.98;115787;1192;63491;-82
2021/10/18 04:34:26;;;;;;;7.90;3.40;;;;;;;8.75;79.25;101580.81;115798;1192;74724;-82
2021/10/18 04:36:54;;;;;;;5.00;2.70;;;;;;;8.77;79.21;101579.02;115857;1192;70999;-82
2021/10/18 04:39:21;;;;;;;4.40;2.50;;;;;;;8.78;79.30;101576.10;115748;1193;73678;-82
2021/10/18 04:41:48;;;;;;;6.70;3.20;;;;;;;8.78;79.20;101575.75;115816;1192;62123;-82
2021/10/18 04:44:15;;;;;;;5.70;3.40;;;;;;;8.78;79.40;101578.37;115884;1192;61223;-82
2021/10/18 04:46:42;;;;;;;8.60;3.60;;;;;;;8.79;79.49;101581.66;115931;1191;75614;-82
2021/10/18 04:49:09;;;;;;;3.90;2.40;;;;;;;8.78;79.44;101584.67;115861;1192;71465;-82
2021/10/18 04:51:36;;;;;;;5.50;2.90;;;;;;;8.78;79.44;101584.73;115919;1192;72669;-82
2021/10/18 04:54:03;;;;;;;8.60;3.30;;;;;;;8.77;79.10;101586.94;115941;1191;62134;-83
2021/10/18 04:56:29;;;;;;;6.80;2.90;;;;;;;8.77;79.13;101588.55;115849;1192;59975;-82
2021/10/18 04:58:56;;;;;;;4.70;3.00;;;;;;;8.77;79.01;101588.55;115881;1191;74651;-82
2021/10/18 05:01:23;;;;;;;8.90;3.30;;;;;;;8.76;79.20;101584.91;115831;1192;72059;-82
2021/10/18 05:03:50;;;;;;;7.50;3.00;;;;;;;8.76;79.17;101584.21;115831;1191;71277;-82
2021/10/18 05:06:16;;;;;;;3.60;2.10;;;;;;;8.76;79.29;101588.67;115863;1192;63160;-82
2021/10/18 05:08:43;;;;;;;4.70;2.90;;;;;;;8.75;79.30;101590.33;115928;1192;59023;-82
2021/10/18 05:11:09;;;;;;;4.40;2.60;;;;;;;8.74;79.03;101592.70;115865;1192;74654;-82
2021/10/18 05:13:36;;;;;;;6.30;3.40;;;;;;;8.73;79.11;101594.55;115919;1191;72097;-82
2021/10/18 05:16:04;;;;;;;5.40;2.70;;;;;;;8.72;78.91;101594.83;115903;1191;71571;-82
2021/10/18 05:18:30;;;;;;;5.00;2.60;;;;;;;8.71;78.96;101598.77;115900;1184;61351;-82
2021/10/18 05:20:57;;;;;;;5.60;2.80;;;;;;;8.69;78.61;101601.23;115718;1191;59914;-82
2021/10/18 05:23:24;;;;;;;4.20;2.50;;;;;;;8.68;78.94;101603.09;115936;1192;75256;-82
2021/10/18 05:25:51;;;;;;;6.50;2.60;;;;;;;8.67;79.08;101605.54;115823;1192;71031;-82
2021/10/18 05:28:17;;;;;;;10.90;3.10;;;;;;;8.65;78.76;101605.71;115836;1192;58951;-82
2021/10/18 05:30:44;;;;;;;7.70;2.80;;;;;;;8.64;78.95;101611.45;115926;1191;63114;-82
2021/10/18 05:33:11;;;;;;;4.10;2.10;;;;;;;8.63;78.85;101607.98;115848;1192;58985;-82
2021/10/18 05:35:37;;;;;;;7.60;2.60;;;;;;;8.62;78.91;101612.84;115896;1192;75612;-82
2021/10/18 05:38:04;;;;;;;8.10;3.10;;;;;;;8.61;79.04;101620.66;115876;1192;72225;-82
2021/10/18 05:40:31;;;;;;;4.20;3.20;;;;;;;8.60;78.73;101623.12;115602;1192;72604;-81
2021/10/18 05:42:58;;;;;;;9.40;3.50;;;;;;;8.58;78.84;101620.98;115333;1186;61348;-82
2021/10/18 05:45:24;;;;;;;4.80;2.90;;;;;;;8.55;79.03;101622.04;115862;1192;60257;-82
2021/10/18 05:47:59;;;;;;;6.40;2.40;;;;;;;8.54;79.17;101625.66;115883;1192;74801;-82
2021/10/18 05:50:32;;;;;;;8.60;3.20;;;;;;;8.52;79.01;101626.42;115890;1192;70861;-82
2021/10/18 05:52:59;;;;;;;5.50;3.10;;;;;;;8.50;79.26;101628.15;115849;1192;72549;-82
2021/10/18 05:55:26;;;;;;;4.70;2.90;;;;;;;8.49;79.37;101635.84;115866;1186;63152;-82
2021/10/18 05:57:55;;;;;;;8.30;2.90;;;;;;;8.47;79.80;101635.50;115838;1193;61271;-82
2021/10/18 06:00:25;;;;;;;4.50;2.90;;;;;;;8.46;79.58;101638.92;115863;1192;75775;-82
2021/10/18 06:02:52;;;;;;;7.90;3.10;;;;;;;8.44;79.67;101635.95;115653;1192;70983;-83
2021/10/18 06:05:20;;;;;;;5.30;3.00;;;;;;;8.42;79.71;101632.80;115876;1192;72287;-82
2021/10/18 06:07:47;;;;;;;9.10;4.60;;;;;;;8.39;79.75;101633.23;115860;1192;61969;-82
2021/10/18 06:10:15;;;;;;;5.30;2.80;;;;;;;8.35;79.89;101636.52;115875;1186;60262;-83
2021/10/18 06:12:42;;;;;;;6.70;3.60;;;;;;;8.32;79.91;101640.35;115870;1192;75604;-82
2021/10/18 06:15:09;;;;;;;5.50;3.30;;;;;;;8.28;80.04;101634.17;115893;1192;71002;-83
2021/10/18 06:17:36;;;;;;;7.40;3.60;;;;;;;8.24;80.25;101635.75;115860;1192;72573;-82
2021/10/18 06:20:05;;;;;;;8.00;3.60;;;;;;;8.21;80.33;101635.02;115867;1192;62115;-82
2021/10/18 06:22:35;;;;;;;4.20;3.00;;;;;;;8.16;80.46;101642.63;115803;1192;59923;-83
2021/10/18 06:25:10;;;;;;;5.90;3.20;;;;;;;8.13;80.86;101640.61;115797;1192;74540;-83
2021/10/18 06:27:37;;;;;;;5.10;3.20;;;;;;;8.10;80.72;101636.27;115959;1192;71170;-82
2021/10/18 06:30:05;;;;;;;8.90;4.10;;;;;;;8.09;80.91;101639.21;115885;1192;72587;-82
2021/10/18 06:32:32;;;;;;;6.40;3.20;;;;;;;8.08;81.18;101645.27;115896;1192;60929;-82
2021/10/18 06:34:59;;;;;;;7.20;3.70;;;;;;;8.06;81.19;101648.98;115832;1192;61267;-82
2021/10/18 06:37:26;;;;;;;6.90;3.60;;;;;;;8.03;80.98;101646.37;115775;1192;74309;-82
2021/10/18 06:39:52;;;;;;;6.60;3.90;;;;;;;8.01;81.24;101648.38;115437;1193;71311;-82
2021/10/18 06:42:19;;;;;;;6.80;3.50;;;;;;;7.99;81.42;101652.25;115813;1192;59013;-82
2021/10/18 06:44:45;;;;;;;8.40;3.80;;;;;;;8.01;81.30;101651.77;115849;1192;58905;-82
2021/10/18 06:47:12;;;;;;;8.40;3.90;;;;;;;8.01;81.01;101655.59;115871;1192;59190;-84
2021/10/18 06:49:39;;;;;;;7.80;3.50;;;;;;;8.02;80.89;101654.61;115868;1192;74775;-83
2021/10/18 06:52:06;;;;;;;5.10;3.30;;;;;;;8.05;81.00;101659.15;115862;1192;71004;-82
2021/10/18 06:54:42;;;;;;;6.00;2.70;;;;;;;8.08;80.51;101662.05;115865;1192;71573;-82
2021/10/18 06:57:08;;;;;;;8.70;3.60;;;;;;;8.11;80.12;101666.81;115640;1192;61553;-82
2021/10/18 06:59:35;;;;;;;4.50;3.10;;;;;;;8.16;80.17;101671.69;115801;1192;59023;-82
2021/10/18 07:02:02;;;;;;;7.50;3.50;;;;;;;8.22;80.10;101675.59;115798;1192;74676;-83
2021/10/18 07:04:33;;;;;;;7.60;4.10;;;;;;;8.27;79.72;101677.86;115839;1192;71005;-83
2021/10/18 07:07:02;;;;;;;6.40;4.00;;;;;;;8.32;79.49;101675.09;115819;1192;72531;-83
2021/10/18 07:09:34;;;;;;;7.40;4.00;;;;;;;8.39;79.33;101674.46;115893;1192;61668;-83
2021/10/18 07:12:01;;;;;;;10.80;4.00;;;;;;;8.46;79.06;101673.69;115887;1192;60505;-83
2021/10/18 07:14:33;;;;;;;6.60;3.40;;;;;;;8.53;78.84;101676.55;115824;1193;75746;-82
2021/10/18 07:17:01;;;;;;;4.90;3.20;;;;;;;8.60;78.41;101680.73;115786;1191;71041;-82
2021/10/18 07:19:31;;;;;;;4.50;3.50;;;;;;;8.67;78.22;101682.06;115886;1191;73859;-83
2021/10/18 07:22:01;;;;;;;6.60;3.20;;;;;;;8.72;77.98;101682.63;115852;1191;59425;-83
2021/10/18 07:24:31;;;;;;;6.80;3.40;;;;;;;8.77;77.56;101684.60;115803;1192;59889;-83
2021/10/18 07:26:59;;;;;;;7.40;2.80;;;;;;;8.86;77.52;101684.41;115895;1192;74547;-83
2021/10/18 07:29:25;;;;;;;11.10;3.40;;;;;;;8.96;77.19;101683.82;115862;1192;58977;-82
2021/10/18 07:31:52;;;;;;;8.00;3.60;;;;;;;9.04;76.37;101682.04;115721;1192;72679;-82
2021/10/18 07:34:19;;;;;;;6.70;3.20;;;;;;;9.13;76.10;101684.73;115448;1192;60838;-82
2021/10/18 07:36:52;;;;;;;5.40;3.00;;;;;;;9.20;75.73;101681.60;115910;1192;60210;-83
2021/10/18 07:39:24;;;;;;;7.10;2.90;;;;;;;9.29;75.08;101683.48;115802;1192;75314;-82
2021/10/18 07:41:55;;;;;;;6.40;3.50;;;;;;;9.36;74.68;101686.48;115863;1192;70790;-82
2021/10/18 07:44:24;;;;;;;5.70;2.60;;;;;;;9.45;74.21;101689.75;115838;1192;72495;-83
2021/10/18 07:46:53;;;;;;;6.30;2.80;;;;;;;9.53;73.99;101688.77;115889;1191;61744;-83
2021/10/18 07:49:19;;;;;;;6.00;2.50;;;;;;;9.64;73.68;101693.81;115898;1191;60197;-82
2021/10/18 07:51:46;;;;;;;5.20;2.80;;;;;;;9.73;73.39;101699.79;115701;1192;76150;-82
2021/10/18 07:54:13;;;;;;;10.80;2.30;;;;;;;9.83;72.97;101696.59;115905;1192;71001;-82
2021/10/18 07:56:39;;;;;;;3.60;2.40;;;;;;;9.91;72.41;101699.56;115876;1192;72737;-82
2021/10/18 07:59:06;;;;;;;4.20;2.70;;;;;;;10.00;72.80;101701.89;115817;1192;60889;-82
2021/10/18 08:01:32;;;;;;;5.50;3.40;;;;;;;10.10;72.06;101702.91;115910;1192;61405;-82
2021/10/18 08:03:59;;;;;;;5.70;3.00;;;;;;;10.18;71.70;101704.20;115843;1192;74583;-82
2021/10/18 08:06:26;;;;;;;3.90;1.70;;;;;;;10.28;71.21;101705.33;115936;1192;59229;-82
2021/10/18 08:08:55;;;;;;;7.10;2.50;;;;;;;10.40;71.08;101709.39;115875;1191;73242;-82
2021/10/18 08:11:22;;;;;;;6.40;3.30;;;;;;;10.55;70.90;101710.55;115699;1192;62190;-82
2021/10/18 08:13:48;;;;;;;6.20;2.90;;;;;;;10.68;70.04;101709.69;115872;1192;60407;-82
2021/10/18 08:16:15;;;;;;;4.20;2.40;;;;;;;10.79;69.77;101704.85;115860;1192;74538;-83
2021/10/18 08:18:42;;;;;;;6.50;2.30;;;;;;;10.87;68.40;101708.51;115814;1192;70246;-82
2021/10/18 08:21:10;;;;;;;4.00;2.70;;;;;;;10.94;67.76;101713.52;115869;1192;58924;-82
2021/10/18 08:23:38;;;;;;;5.00;2.70;;;;;;;10.98;67.36;101715.21;115901;1192;61343;-82
2021/10/18 08:26:05;;;;;;;4.90;2.60;;;;;;;11.00;67.26;101715.46;115922;1191;60329;-83
2021/10/18 08:28:32;;;;;;;6.70;2.80;;;;;;;11.05;66.70;101715.44;115890;1192;74592;-82
2021/10/18 08:31:10;;;;;;;5.50;3.10;;;;;;;11.10;66.56;101714.17;115798;1192;71561;-82
2021/10/18 08:33:37;;;;;;;8.80;3.30;;;;;;;11.17;66.64;101713.25;115888;1192;73349;-82
2021/10/18 08:36:05;;;;;;;4.60;3.10;;;;;;;11.26;66.54;101713.61;115878;1192;61275;-82
2021/10/18 08:38:53;;;;;;;7.10;3.10;;;;;;;11.40;67.02;101713.24;115875;1192;60171;-82
2021/10/18 08:46:24;;;;;;;4.20;2.50;;;;;;;11.62;65.61;101722.77;115854;1192;71739;-82
2021/10/18 08:48:54;;;;;;;6.20;2.90;;;;;;;11.65;65.29;101717.66;115842;1191;60443;-82
2021/10/18 08:51:21;;;;;;;8.00;3.00;;;;;;;11.71;65.06;101720.07;115846;1192;60757;-82
2021/10/18 08:53:48;;;;;;;7.30;3.20;;;;;;;11.81;65.60;101716.52;115902;1192;74541;-83
2021/10/18 08:56:15;;;;;;;7.40;2.80;;;;;;;11.93;65.68;101715.86;115956;1191;71697;-82
2021/10/18 08:58:42;;;;;;;5.20;2.80;;;;;;;12.05;64.80;101720.55;115866;1192;72714;-82
2021/10/18 09:01:08;;;;;;;4.30;2.80;;;;;;;12.15;64.49;101720.70;115795;1192;61446;-82
2021/10/18 09:03:36;;;;;;;4.20;3.10;;;;;;;12.24;64.23;101712.10;115804;1192;61214;-82
2021/10/18 09:06:20;;;;;;;7.90;2.50;;;;;;;12.37;64.93;101706.16;115844;1192;73672;-82
2021/10/18 09:08:52;;;;;;;4.70;2.40;;;;;;;12.50;64.83;101704.39;115720;1192;71049;-74
2021/10/18 09:11:27;;;;;;;4.40;2.50;;;;;;;12.61;64.81;101708.75;115679;1192;72974;-75
2021/10/18 09:13:53;;;;;;;4.10;2.10;;;;;;;12.73;65.07;101706.23;115826;1192;60500;-75
2021/10/18 09:16:42;;;;;;;5.00;2.90;;;;;;;12.84;64.63;101707.05;115776;1192;58995;-75
2021/10/18 09:19:10;;;;;;;4.90;2.40;;;;;;;12.92;63.52;101708.80;115870;1192;75148;-75
2021/10/18 09:21:53;;;;;;;3.70;2.30;;;;;;;12.92;63.16;101713.45;115856;1192;69452;-75
2021/10/18 09:24:29;;;;;;;8.90;3.20;;;;;;;12.94;63.19;101715.88;115679;1192;71619;-75
2021/10/18 09:27:07;;;;;;;5.20;2.90;;;;;;;12.98;63.10;101717.88;115782;1192;60354;-74
2021/10/18 09:29:45;;;;;;;10.40;3.40;;;;;;;13.02;62.34;101725.60;115310;1192;59904;-75
2021/10/18 09:32:28;;;;;;;5.90;2.70;;;;;;;13.05;62.07;101726.88;115584;1192;75767;-75
2021/10/18 09:35:04;;;;;;;4.70;2.50;;;;;;;13.13;62.80;101731.77;115837;1192;71221;-75
2021/10/18 09:37:39;;;;;;;6.30;2.50;;;;;;;13.16;61.56;101731.70;115750;1192;72518;-75
2021/10/18 09:40:08;;;;;;;5.10;2.50;;;;;;;13.18;62.04;101728.41;115857;1192;60872;-75
2021/10/18 09:42:35;;;;;;;4.50;2.10;;;;;;;13.23;63.02;101733.01;115849;1192;61678;-75
2021/10/18 09:45:25;;;;;;;6.90;2.50;;;;;;;13.31;62.68;101729.83;115784;1192;74575;-75
2021/10/18 10:52:36;;;;;;;;;;;;;;;15.06;54.48;101686.57;115848;1192;60311;-74
2021/10/18 10:55:19;;;;;;;4.10;1.90;;;;;;;15.20;54.01;101681.44;115875;1192;75831;-75
2021/10/18 10:57:46;;;;;;;5.60;2.30;;;;;;;15.36;53.78;101683.29;115823;1192;71030;-73
2021/10/18 11:00:33;;;;;;;4.50;2.20;;;;;;;15.45;53.09;101686.52;115828;1192;73129;-73
2021/10/18 11:03:36;;;;;;;4.20;2.20;;;;;;;15.50;53.47;101678.20;115861;1192;60304;-75
2021/10/18 11:06:06;;;;;;;3.50;2.50;;;;;;;15.66;53.04;101682.54;115862;1192;60110;-73
2021/10/18 11:08:59;;;;;;;4.90;1.80;;;;;;;15.78;53.36;101684.38;115496;1192;74450;-74
2021/10/18 11:11:26;;;;;;;3.70;2.00;;;;;;;15.99;52.93;101687.23;115858;1192;71025;-74
2021/10/18 11:13:58;;;;;;;6.30;2.10;;;;;;;16.13;52.24;101687.83;115827;1192;74571;-74
2021/10/18 11:16:30;;;;;;;4.30;1.90;;;;;;;16.21;51.68;101687.64;115851;1192;59356;-74
2021/10/18 11:19:01;;;;;;;4.30;2.00;;;;;;;16.29;51.71;101694.91;115853;1192;60742;-74
2021/10/18 11:21:30;;;;;;;3.30;1.70;;;;;;;16.28;50.17;101694.61;115802;1192;75944;-74
2021/10/18 11:23:58;;;;;;;5.80;1.90;;;;;;;16.27;50.49;101694.64;115637;1192;71640;-74
2021/10/18 11:26:28;;;;;;;4.50;2.00;;;;;;;16.37;50.59;101690.78;115444;1192;72378;-74
2021/10/18 11:29:00;;;;;;;4.00;1.80;;;;;;;16.45;50.23;101692.95;115799;1192;61406;-74
2021/10/18 11:31:29;;;;;;;3.30;1.90;;;;;;;16.66;50.16;101693.87;115880;1192;60213;-74
2021/10/18 11:34:04;;;;;;;3.70;2.10;;;;;;;16.82;49.25;101696.34;115962;1192;75590;-74
2021/10/18 11:36:31;;;;;;;4.10;2.20;;;;;;;16.79;48.72;101694.70;115969;1192;70725;-74
2021/10/18 11:39:21;;;;;;;3.80;1.90;;;;;;;16.71;48.85;101686.73;115924;1192;73618;-74
2021/10/18 11:42:10;;;;;;;4.30;2.50;;;;;;;16.76;49.69;101674.46;115823;1192;61385;-74
2021/10/18 11:44:38;;;;;;;3.70;1.70;;;;;;;16.88;49.92;101667.96;115876;1192;59943;-74
2021/10/18 11:47:19;;;;;;;3.80;2.00;;;;;;;16.95;49.93;101667.02;115524;1192;74513;-74
2021/10/18 11:50:11;;;;;;;4.10;1.60;;;;;;;16.95;49.53;101661.86;115694;1192;72002;-74
2021/10/18 11:52:45;;;;;;;3.70;1.60;;;;;;;16.97;49.49;101657.58;115834;1192;71565;-74
2021/10/18 11:55:15;;;;;;;5.00;2.80;;;;;;;17.22;49.18;101650.01;115866;1192;61223;-74
2021/10/18 11:57:45;;;;;;;6.20;2.10;;;;;;;17.62;48.66;101648.55;115883;1192;61982;-74
2021/10/18 12:00:41;;;;;;;3.40;2.00;;;;;;;17.72;47.50;101641.42;115844;1192;75650;-74
2021/10/18 12:03:14;;;;;;;4.50;2.10;;;;;;;17.75;48.02;101638.52;115848;1192;71012;-74
2021/10/18 12:05:43;;;;;;;4.10;1.90;;;;;;;17.87;47.38;101630.91;115746;1192;73608;-74
2021/10/18 12:08:12;;;;;;;5.80;1.60;;;;;;;18.01;46.81;101619.02;115554;1192;61321;-74
2021/10/18 12:10:40;;;;;;;3.90;1.90;;;;;;;18.12;46.93;101614.97;115823;1192;61283;-74
2021/10/18 12:13:18;;;;;;;4.90;2.00;;;;;;;18.16;46.29;101610.60;115850;1192;74709;-74
2021/10/18 12:16:03;;;;;;;3.30;1.50;;;;;;;18.25;46.22;101606.77;115880;1192;72049;-74
2021/10/18 12:18:44;;;;;;;3.40;1.90;;;;;;;18.29;45.98;101605.88;115779;1192;73575;-73
2021/10/18 12:21:39;;;;;;;4.50;1.60;;;;;;;18.39;45.72;101609.04;115857;1192;63935;-74
2021/10/18 12:24:11;;;;;;;4.40;2.20;;;;;;;18.16;44.65;101606.40;115669;1192;60306;-73
2021/10/18 12:26:54;;;;;;;2.40;1.40;;;;;;;18.02;45.58;101605.86;115613;1192;75503;-73
2021/10/18 12:29:23;;;;;;;2.30;1.40;;;;;;;18.02;46.38;101603.66;115668;1192;72082;-74
2021/10/18 12:31:54;;;;;;;3.00;1.50;;;;;;;18.38;45.60;101603.58;115833;1192;71527;-74
2021/10/18 12:34:25;;;;;;;4.70;1.60;;;;;;;18.60;44.34;101599.63;115845;1192;59799;-74
2021/10/18 12:37:12;;;;;;;4.70;2.00;;;;;;;18.74;44.19;101597.95;115845;1192;60465;-74
2021/10/18 12:39:49;;;;;;;3.00;1.60;;;;;;;18.91;43.88;101597.47;115866;1192;75858;-74
2021/10/18 12:42:25;;;;;;;3.20;1.20;;;;;;;19.08;43.67;101597.29;115748;1186;71908;-74